Urubici, Brazil
Current Conditions -  °F | °C
As of 11:15 PM on Monday 22 Dec 2014 (Local Time) from SBCM Reporting Station
Broken Clouds Broken Clouds  
Wind Chill: 70°   Ceiling: 8000
Heat Index: 70°   Visibility: 6mi
Dew Point: 63°   Wind: 6mph
Humidity: 78%   Direction: 270°W
Pressure: 30.09"   Gusts: NA
Location:  28.02°S, 49.59°W
Report Text: SBCM 230115Z 27005KT 9999 FEW025 BKN080 21/17 Q1019
Loading
Personal Weather Stations






























Interactive Weather Map New forecast layout! Learn more

10-Day Weather Forecast

Advertisements
Track Severe Weather on mobile